sensor_id;sensor_type;location;lat;lon;timestamp;temperature;humidity
62998;DHT22;55949;52.590;7.330;2023-07-30T00:00:09;17.50;99.90
62998;DHT22;55949;52.590;7.330;2023-07-30T00:01:10;17.50;99.90
62998;DHT22;55949;52.590;7.330;2023-07-30T00:02:11;17.50;99.90
62998;DHT22;55949;52.590;7.330;2023-07-30T00:03:11;17.40;99.90
62998;DHT22;55949;52.590;7.330;2023-07-30T00:04:12;17.60;99.90
62998;DHT22;55949;52.590;7.330;2023-07-30T00:05:13;17.60;99.90
62998;DHT22;55949;52.590;7.330;2023-07-30T00:06:14;17.70;99.90
62998;DHT22;55949;52.590;7.330;2023-07-30T00:07:15;17.80;99.90
62998;DHT22;55949;52.590;7.330;2023-07-30T00:08:15;17.60;99.90
62998;DHT22;55949;52.590;7.330;2023-07-30T00:09:16;17.70;99.90
62998;DHT22;55949;52.590;7.330;2023-07-30T00:10:17;17.40;99.90
62998;DHT22;55949;52.590;7.330;2023-07-30T00:11:18;17.30;99.90
62998;DHT22;55949;52.590;7.330;2023-07-30T00:12:18;17.20;99.90
62998;DHT22;55949;52.590;7.330;2023-07-30T00:13:19;17.30;99.90
62998;DHT22;55949;52.590;7.330;2023-07-30T00:14:20;17.40;99.90
62998;DHT22;55949;52.590;7.330;2023-07-30T00:15:21;17.60;99.90
62998;DHT22;55949;52.590;7.330;2023-07-30T00:16:21;17.50;99.90
62998;DHT22;55949;52.590;7.330;2023-07-30T00:17:22;17.60;99.90
62998;DHT22;55949;52.590;7.330;2023-07-30T00:18:23;17.70;99.90
62998;DHT22;55949;52.590;7.330;2023-07-30T00:19:23;17.90;99.90
62998;DHT22;55949;52.590;7.330;2023-07-30T00:20:24;18.00;99.90
62998;DHT22;55949;52.590;7.330;2023-07-30T00:21:25;18.10;99.90
62998;DHT22;55949;52.590;7.330;2023-07-30T00:22:26;18.20;99.90
62998;DHT22;55949;52.590;7.330;2023-07-30T00:23:26;18.20;99.90
62998;DHT22;55949;52.590;7.330;2023-07-30T00:24:27;18.00;99.90
62998;DHT22;55949;52.590;7.330;2023-07-30T00:25:28;18.10;99.90
62998;DHT22;55949;52.590;7.330;2023-07-30T00:26:28;18.20;99.90
62998;DHT22;55949;52.590;7.330;2023-07-30T00:27:30;18.10;99.90
62998;DHT22;55949;52.590;7.330;2023-07-30T00:28:32;18.10;99.90
62998;DHT22;55949;52.590;7.330;2023-07-30T00:29:32;18.10;99.90
62998;DHT22;55949;52.590;7.330;2023-07-30T00:30:33;18.20;99.90
62998;DHT22;55949;52.590;7.330;2023-07-30T00:31:34;18.10;99.90
62998;DHT22;55949;52.590;7.330;2023-07-30T00:32:35;18.10;99.90
62998;DHT22;55949;52.590;7.330;2023-07-30T00:33:36;18.20;99.90
62998;DHT22;55949;52.590;7.330;2023-07-30T00:34:36;18.10;99.90
62998;DHT22;55949;52.590;7.330;2023-07-30T00:35:37;18.00;99.90
62998;DHT22;55949;52.590;7.330;2023-07-30T00:36:38;18.10;99.90
62998;DHT22;55949;52.590;7.330;2023-07-30T00:37:38;18.10;99.90
62998;DHT22;55949;52.590;7.330;2023-07-30T00:38:39;18.20;99.90
62998;DHT22;55949;52.590;7.330;2023-07-30T00:39:40;18.10;99.90
62998;DHT22;55949;52.590;7.330;2023-07-30T00:40:40;18.20;99.90
62998;DHT22;55949;52.590;7.330;2023-07-30T00:41:44;18.30;99.90
62998;DHT22;55949;52.590;7.330;2023-07-30T00:42:46;18.20;99.90
62998;DHT22;55949;52.590;7.330;2023-07-30T00:43:47;18.10;99.90
62998;DHT22;55949;52.590;7.330;2023-07-30T00:44:47;18.20;99.90
62998;DHT22;55949;52.590;7.330;2023-07-30T00:45:49;18.20;99.90
62998;DHT22;55949;52.590;7.330;2023-07-30T00:46:50;18.10;99.90
62998;DHT22;55949;52.590;7.330;2023-07-30T00:47:51;18.10;99.90
62998;DHT22;55949;52.590;7.330;2023-07-30T00:48:51;18.20;99.90
62998;DHT22;55949;52.590;7.330;2023-07-30T00:49:53;18.20;99.90
62998;DHT22;55949;52.590;7.330;2023-07-30T00:50:54;18.20;99.90
62998;DHT22;55949;52.590;7.330;2023-07-30T00:51:55;18.20;99.90
62998;DHT22;55949;52.590;7.330;2023-07-30T00:52:57;18.30;99.90
62998;DHT22;55949;52.590;7.330;2023-07-30T00:53:58;18.40;99.90
62998;DHT22;55949;52.590;7.330;2023-07-30T00:54:59;18.50;99.90
62998;DHT22;55949;52.590;7.330;2023-07-30T00:56:01;18.50;99.90
62998;DHT22;55949;52.590;7.330;2023-07-30T00:57:02;18.40;99.90
62998;DHT22;55949;52.590;7.330;2023-07-30T00:58:03;18.30;99.90
62998;DHT22;55949;52.590;7.330;2023-07-30T00:59:04;18.00;99.90
62998;DHT22;55949;52.590;7.330;2023-07-30T01:00:06;17.80;99.90
62998;DHT22;55949;52.590;7.330;2023-07-30T01:01:09;17.70;99.90
62998;DHT22;55949;52.590;7.330;2023-07-30T01:02:10;17.60;99.90
62998;DHT22;55949;52.590;7.330;2023-07-30T01:03:12;17.40;99.90
62998;DHT22;55949;52.590;7.330;2023-07-30T01:04:14;17.40;99.90
62998;DHT22;55949;52.590;7.330;2023-07-30T01:05:15;17.30;99.90
62998;DHT22;55949;52.590;7.330;2023-07-30T01:06:16;17.10;99.90
62998;DHT22;55949;52.590;7.330;2023-07-30T01:07:17;17.00;99.90
62998;DHT22;55949;52.590;7.330;2023-07-30T01:08:17;17.10;99.90
62998;DHT22;55949;52.590;7.330;2023-07-30T01:09:18;17.00;99.90
62998;DHT22;55949;52.590;7.330;2023-07-30T01:10:19;17.10;99.90
62998;DHT22;55949;52.590;7.330;2023-07-30T01:11:20;17.10;99.90
62998;DHT22;55949;52.590;7.330;2023-07-30T01:12:22;17.10;99.90
62998;DHT22;55949;52.590;7.330;2023-07-30T01:13:23;16.60;99.90
62998;DHT22;55949;52.590;7.330;2023-07-30T01:14:24;16.70;99.90
62998;DHT22;55949;52.590;7.330;2023-07-30T01:15:28;16.70;99.90
62998;DHT22;55949;52.590;7.330;2023-07-30T01:16:29;16.80;99.90
62998;DHT22;55949;52.590;7.330;2023-07-30T01:17:30;16.80;99.90
62998;DHT22;55949;52.590;7.330;2023-07-30T01:18:31;16.80;99.90
62998;DHT22;55949;52.590;7.330;2023-07-30T01:19:32;16.80;99.90
62998;DHT22;55949;52.590;7.330;2023-07-30T01:20:32;16.90;99.90
62998;DHT22;55949;52.590;7.330;2023-07-30T01:21:35;17.00;99.90
62998;DHT22;55949;52.590;7.330;2023-07-30T01:22:36;17.00;99.90
62998;DHT22;55949;52.590;7.330;2023-07-30T01:23:36;17.00;99.90
62998;DHT22;55949;52.590;7.330;2023-07-30T01:24:37;17.10;99.90
62998;DHT22;55949;52.590;7.330;2023-07-30T01:25:38;17.10;99.90
62998;DHT22;55949;52.590;7.330;2023-07-30T01:28:12;17.00;99.90
62998;DHT22;55949;52.590;7.330;2023-07-30T01:29:32;17.00;99.90
62998;DHT22;55949;52.590;7.330;2023-07-30T01:30:41;17.10;99.90
62998;DHT22;55949;52.590;7.330;2023-07-30T01:31:43;17.10;99.90
62998;DHT22;55949;52.590;7.330;2023-07-30T01:32:49;17.40;99.90
62998;DHT22;55949;52.590;7.330;2023-07-30T01:33:55;17.40;99.90
62998;DHT22;55949;52.590;7.330;2023-07-30T01:34:57;17.50;99.90
62998;DHT22;55949;52.590;7.330;2023-07-30T01:35:58;17.60;99.90
62998;DHT22;55949;52.590;7.330;2023-07-30T01:37:00;17.60;99.90
62998;DHT22;55949;52.590;7.330;2023-07-30T01:38:02;17.70;99.90
62998;DHT22;55949;52.590;7.330;2023-07-30T01:39:06;17.90;99.90
62998;DHT22;55949;52.590;7.330;2023-07-30T01:40:08;17.90;99.90
62998;DHT22;55949;52.590;7.330;2023-07-30T01:41:09;17.90;99.90
62998;DHT22;55949;52.590;7.330;2023-07-30T01:42:12;17.90;99.90
62998;DHT22;55949;52.590;7.330;2023-07-30T01:43:13;18.00;99.90
62998;DHT22;55949;52.590;7.330;2023-07-30T01:44:13;18.10;99.90
62998;DHT22;55949;52.590;7.330;2023-07-30T01:45:14;18.10;99.90
62998;DHT22;55949;52.590;7.330;2023-07-30T01:46:15;18.00;99.90
62998;DHT22;55949;52.590;7.330;2023-07-30T01:47:15;18.00;99.90
62998;DHT22;55949;52.590;7.330;2023-07-30T01:48:16;18.00;99.90
62998;DHT22;55949;52.590;7.330;2023-07-30T01:49:17;17.90;99.90
62998;DHT22;55949;52.590;7.330;2023-07-30T01:50:17;17.80;99.90
62998;DHT22;55949;52.590;7.330;2023-07-30T01:51:18;17.80;99.90
62998;DHT22;55949;52.590;7.330;2023-07-30T01:52:19;17.80;99.90
62998;DHT22;55949;52.590;7.330;2023-07-30T01:53:20;17.90;99.90
62998;DHT22;55949;52.590;7.330;2023-07-30T01:54:20;17.70;99.90
62998;DHT22;55949;52.590;7.330;2023-07-30T01:55:21;17.70;99.90
62998;DHT22;55949;52.590;7.330;2023-07-30T01:56:22;17.60;99.90
62998;DHT22;55949;52.590;7.330;2023-07-30T01:57:22;17.60;99.90
62998;DHT22;55949;52.590;7.330;2023-07-30T01:58:23;17.60;99.90
62998;DHT22;55949;52.590;7.330;2023-07-30T01:59:24;17.60;99.90
62998;DHT22;55949;52.590;7.330;2023-07-30T02:00:27;17.50;99.90
62998;DHT22;55949;52.590;7.330;2023-07-30T02:01:28;17.30;99.90
62998;DHT22;55949;52.590;7.330;2023-07-30T02:02:29;17.40;99.90
62998;DHT22;55949;52.590;7.330;2023-07-30T02:03:29;17.50;99.90
62998;DHT22;55949;52.590;7.330;2023-07-30T02:04:30;17.50;99.90
62998;DHT22;55949;52.590;7.330;2023-07-30T02:05:31;17.50;99.90
62998;DHT22;55949;52.590;7.330;2023-07-30T02:06:32;17.50;99.90
62998;DHT22;55949;52.590;7.330;2023-07-30T02:07:32;17.60;99.90
62998;DHT22;55949;52.590;7.330;2023-07-30T02:08:33;17.50;99.90
62998;DHT22;55949;52.590;7.330;2023-07-30T02:09:34;17.60;99.90
62998;DHT22;55949;52.590;7.330;2023-07-30T02:10:34;17.60;99.90
62998;DHT22;55949;52.590;7.330;2023-07-30T02:11:35;17.70;99.90
62998;DHT22;55949;52.590;7.330;2023-07-30T02:12:36;17.60;99.90
62998;DHT22;55949;52.590;7.330;2023-07-30T02:13:36;17.60;99.90
62998;DHT22;55949;52.590;7.330;2023-07-30T02:14:37;17.50;99.90
62998;DHT22;55949;52.590;7.330;2023-07-30T02:15:41;17.40;99.90
62998;DHT22;55949;52.590;7.330;2023-07-30T02:16:42;17.40;99.90
62998;DHT22;55949;52.590;7.330;2023-07-30T02:17:43;17.50;99.90
62998;DHT22;55949;52.590;7.330;2023-07-30T02:18:44;17.40;99.90
62998;DHT22;55949;52.590;7.330;2023-07-30T02:19:45;17.40;99.90
62998;DHT22;55949;52.590;7.330;2023-07-30T02:20:46;17.40;99.90
62998;DHT22;55949;52.590;7.330;2023-07-30T02:21:46;17.50;99.90
62998;DHT22;55949;52.590;7.330;2023-07-30T02:22:47;17.50;99.90
62998;DHT22;55949;52.590;7.330;2023-07-30T02:23:48;17.60;99.90
62998;DHT22;55949;52.590;7.330;2023-07-30T02:24:48;17.70;99.90
62998;DHT22;55949;52.590;7.330;2023-07-30T02:25:49;17.80;99.90
62998;DHT22;55949;52.590;7.330;2023-07-30T02:26:50;17.60;99.90
62998;DHT22;55949;52.590;7.330;2023-07-30T02:27:50;17.30;99.90
62998;DHT22;55949;52.590;7.330;2023-07-30T02:28:51;17.30;99.90
62998;DHT22;55949;52.590;7.330;2023-07-30T02:29:52;17.20;99.90
62998;DHT22;55949;52.590;7.330;2023-07-30T02:30:52;17.30;99.90
62998;DHT22;55949;52.590;7.330;2023-07-30T02:31:53;17.30;99.90
62998;DHT22;55949;52.590;7.330;2023-07-30T02:32:54;17.30;99.90
62998;DHT22;55949;52.590;7.330;2023-07-30T02:33:54;17.40;99.90
62998;DHT22;55949;52.590;7.330;2023-07-30T02:34:55;17.40;99.90
62998;DHT22;55949;52.590;7.330;2023-07-30T02:35:56;17.30;99.90
62998;DHT22;55949;52.590;7.330;2023-07-30T02:36:56;17.40;99.90
62998;DHT22;55949;52.590;7.330;2023-07-30T02:37:57;17.50;99.90
62998;DHT22;55949;52.590;7.330;2023-07-30T02:38:58;17.40;99.90
62998;DHT22;55949;52.590;7.330;2023-07-30T02:39:58;17.50;99.90
62998;DHT22;55949;52.590;7.330;2023-07-30T02:41:00;17.50;99.90
62998;DHT22;55949;52.590;7.330;2023-07-30T02:42:00;17.60;99.90
62998;DHT22;55949;52.590;7.330;2023-07-30T02:43:01;17.70;99.90
62998;DHT22;55949;52.590;7.330;2023-07-30T02:44:01;17.80;99.90
62998;DHT22;55949;52.590;7.330;2023-07-30T02:45:03;17.60;99.90
62998;DHT22;55949;52.590;7.330;2023-07-30T02:46:03;17.40;99.90
62998;DHT22;55949;52.590;7.330;2023-07-30T02:47:04;17.40;99.90
62998;DHT22;55949;52.590;7.330;2023-07-30T02:48:05;17.20;99.90
62998;DHT22;55949;52.590;7.330;2023-07-30T02:49:06;17.30;99.90
62998;DHT22;55949;52.590;7.330;2023-07-30T02:50:09;17.30;99.90
62998;DHT22;55949;52.590;7.330;2023-07-30T02:51:09;17.40;99.90
62998;DHT22;55949;52.590;7.330;2023-07-30T02:52:10;17.30;99.90
62998;DHT22;55949;52.590;7.330;2023-07-30T02:53:11;17.40;99.90
62998;DHT22;55949;52.590;7.330;2023-07-30T02:54:11;17.30;99.90
62998;DHT22;55949;52.590;7.330;2023-07-30T02:55:12;17.30;99.90
62998;DHT22;55949;52.590;7.330;2023-07-30T02:56:13;17.20;99.90
62998;DHT22;55949;52.590;7.330;2023-07-30T02:57:13;17.20;99.90
62998;DHT22;55949;52.590;7.330;2023-07-30T02:58:14;17.10;99.90
62998;DHT22;55949;52.590;7.330;2023-07-30T02:59:14;17.20;99.90
62998;DHT22;55949;52.590;7.330;2023-07-30T03:00:15;17.10;99.90
62998;DHT22;55949;52.590;7.330;2023-07-30T03:01:16;17.20;99.90
62998;DHT22;55949;52.590;7.330;2023-07-30T03:02:17;17.00;99.90
62998;DHT22;55949;52.590;7.330;2023-07-30T03:03:17;17.10;99.90
62998;DHT22;55949;52.590;7.330;2023-07-30T03:04:18;17.10;99.90
62998;DHT22;55949;52.590;7.330;2023-07-30T03:05:19;17.20;99.90
62998;DHT22;55949;52.590;7.330;2023-07-30T03:06:19;17.20;99.90
62998;DHT22;55949;52.590;7.330;2023-07-30T03:07:20;17.30;99.90
62998;DHT22;55949;52.590;7.330;2023-07-30T03:08:21;17.30;99.90
62998;DHT22;55949;52.590;7.330;2023-07-30T03:09:21;16.90;99.90
62998;DHT22;55949;52.590;7.330;2023-07-30T03:10:22;17.10;99.90
62998;DHT22;55949;52.590;7.330;2023-07-30T03:11:23;17.20;99.90
62998;DHT22;55949;52.590;7.330;2023-07-30T03:12:24;17.30;99.90
62998;DHT22;55949;52.590;7.330;2023-07-30T03:13:25;17.20;99.90
62998;DHT22;55949;52.590;7.330;2023-07-30T03:14:25;17.30;99.90
62998;DHT22;55949;52.590;7.330;2023-07-30T03:15:27;17.20;99.90
62998;DHT22;55949;52.590;7.330;2023-07-30T03:16:27;17.00;99.90
62998;DHT22;55949;52.590;7.330;2023-07-30T03:17:28;17.00;99.90
62998;DHT22;55949;52.590;7.330;2023-07-30T03:18:29;17.00;99.90
62998;DHT22;55949;52.590;7.330;2023-07-30T03:19:29;16.50;99.90
62998;DHT22;55949;52.590;7.330;2023-07-30T03:20:30;16.60;99.90
62998;DHT22;55949;52.590;7.330;2023-07-30T03:21:31;16.50;99.90
62998;DHT22;55949;52.590;7.330;2023-07-30T03:22:31;16.60;99.90
62998;DHT22;55949;52.590;7.330;2023-07-30T03:23:32;16.40;99.90
62998;DHT22;55949;52.590;7.330;2023-07-30T03:24:33;16.50;99.90
62998;DHT22;55949;52.590;7.330;2023-07-30T03:25:33;16.50;99.90
62998;DHT22;55949;52.590;7.330;2023-07-30T03:26:34;16.40;99.90
62998;DHT22;55949;52.590;7.330;2023-07-30T03:27:35;16.40;99.90
62998;DHT22;55949;52.590;7.330;2023-07-30T03:28:35;16.60;99.90
62998;DHT22;55949;52.590;7.330;2023-07-30T03:29:36;16.60;99.90
62998;DHT22;55949;52.590;7.330;2023-07-30T03:30:37;16.70;99.90
62998;DHT22;55949;52.590;7.330;2023-07-30T03:31:37;16.60;99.90
62998;DHT22;55949;52.590;7.330;2023-07-30T03:32:38;16.70;99.90
62998;DHT22;55949;52.590;7.330;2023-07-30T03:33:40;16.80;99.90
62998;DHT22;55949;52.590;7.330;2023-07-30T03:34:44;16.80;99.90
62998;DHT22;55949;52.590;7.330;2023-07-30T03:35:44;16.90;99.90
62998;DHT22;55949;52.590;7.330;2023-07-30T03:36:45;16.90;99.90
62998;DHT22;55949;52.590;7.330;2023-07-30T03:37:46;16.60;99.90
62998;DHT22;55949;52.590;7.330;2023-07-30T03:38:46;16.60;99.90
62998;DHT22;55949;52.590;7.330;2023-07-30T03:39:47;16.70;99.90
62998;DHT22;55949;52.590;7.330;2023-07-30T03:40:48;16.80;99.90
62998;DHT22;55949;52.590;7.330;2023-07-30T03:41:49;16.80;99.90
62998;DHT22;55949;52.590;7.330;2023-07-30T03:42:51;16.80;99.90
62998;DHT22;55949;52.590;7.330;2023-07-30T03:43:51;16.60;99.90
62998;DHT22;55949;52.590;7.330;2023-07-30T03:44:52;16.60;99.90
62998;DHT22;55949;52.590;7.330;2023-07-30T03:45:53;16.60;99.90
62998;DHT22;55949;52.590;7.330;2023-07-30T03:46:53;16.90;99.90
62998;DHT22;55949;52.590;7.330;2023-07-30T03:47:54;17.00;99.90
62998;DHT22;55949;52.590;7.330;2023-07-30T03:48:55;17.10;99.90
62998;DHT22;55949;52.590;7.330;2023-07-30T03:49:55;16.80;99.90
62998;DHT22;55949;52.590;7.330;2023-07-30T03:50:56;16.90;99.90
62998;DHT22;55949;52.590;7.330;2023-07-30T03:51:57;16.80;99.90
62998;DHT22;55949;52.590;7.330;2023-07-30T03:52:58;16.80;99.90
62998;DHT22;55949;52.590;7.330;2023-07-30T03:53:58;16.90;99.90
62998;DHT22;55949;52.590;7.330;2023-07-30T03:54:59;17.00;99.90
62998;DHT22;55949;52.590;7.330;2023-07-30T03:55:59;17.10;99.90
62998;DHT22;55949;52.590;7.330;2023-07-30T03:57:00;17.10;99.90
62998;DHT22;55949;52.590;7.330;2023-07-30T03:58:01;17.20;99.90
62998;DHT22;55949;52.590;7.330;2023-07-30T03:59:01;17.40;99.90
62998;DHT22;55949;52.590;7.330;2023-07-30T04:00:03;17.30;99.90
62998;DHT22;55949;52.590;7.330;2023-07-30T04:01:04;17.30;99.90
62998;DHT22;55949;52.590;7.330;2023-07-30T04:02:07;17.30;99.90
62998;DHT22;55949;52.590;7.330;2023-07-30T04:03:08;17.30;99.90
62998;DHT22;55949;52.590;7.330;2023-07-30T04:04:08;17.20;99.90
62998;DHT22;55949;52.590;7.330;2023-07-30T04:05:09;17.30;99.90
62998;DHT22;55949;52.590;7.330;2023-07-30T04:06:09;17.40;99.90
62998;DHT22;55949;52.590;7.330;2023-07-30T04:07:10;17.50;99.90
62998;DHT22;55949;52.590;7.330;2023-07-30T04:08:11;17.50;99.90
62998;DHT22;55949;52.590;7.330;2023-07-30T04:09:12;17.50;99.90
62998;DHT22;55949;52.590;7.330;2023-07-30T04:10:12;17.60;99.90
62998;DHT22;55949;52.590;7.330;2023-07-30T04:11:13;17.50;99.90
62998;DHT22;55949;52.590;7.330;2023-07-30T04:12:14;17.50;99.90
62998;DHT22;55949;52.590;7.330;2023-07-30T04:13:14;17.60;99.90
62998;DHT22;55949;52.590;7.330;2023-07-30T04:14:15;17.60;99.90
62998;DHT22;55949;52.590;7.330;2023-07-30T04:15:16;17.50;99.90
62998;DHT22;55949;52.590;7.330;2023-07-30T04:16:17;17.40;99.90
62998;DHT22;55949;52.590;7.330;2023-07-30T04:17:17;17.40;99.90
62998;DHT22;55949;52.590;7.330;2023-07-30T04:18:18;17.30;99.90
62998;DHT22;55949;52.590;7.330;2023-07-30T04:19:20;17.30;99.90
62998;DHT22;55949;52.590;7.330;2023-07-30T04:20:21;17.30;99.90
62998;DHT22;55949;52.590;7.330;2023-07-30T04:21:22;17.40;99.90
62998;DHT22;55949;52.590;7.330;2023-07-30T04:22:22;17.40;99.90
62998;DHT22;55949;52.590;7.330;2023-07-30T04:23:23;17.50;99.90
62998;DHT22;55949;52.590;7.330;2023-07-30T04:24:24;17.50;99.90
62998;DHT22;55949;52.590;7.330;2023-07-30T04:25:26;17.60;99.90
62998;DHT22;55949;52.590;7.330;2023-07-30T04:26:27;17.70;99.90
62998;DHT22;55949;52.590;7.330;2023-07-30T04:27:27;17.60;99.90
62998;DHT22;55949;52.590;7.330;2023-07-30T04:28:28;17.60;99.90
62998;DHT22;55949;52.590;7.330;2023-07-30T04:29:29;17.60;99.90
62998;DHT22;55949;52.590;7.330;2023-07-30T04:30:29;17.60;99.90
62998;DHT22;55949;52.590;7.330;2023-07-30T04:31:30;17.30;99.90
62998;DHT22;55949;52.590;7.330;2023-07-30T04:32:32;17.30;99.90
62998;DHT22;55949;52.590;7.330;2023-07-30T04:33:33;17.40;99.90
62998;DHT22;55949;52.590;7.330;2023-07-30T04:34:34;17.50;99.90
62998;DHT22;55949;52.590;7.330;2023-07-30T04:35:34;17.50;99.90
62998;DHT22;55949;52.590;7.330;2023-07-30T04:36:35;17.50;99.90
62998;DHT22;55949;52.590;7.330;2023-07-30T04:37:36;17.50;99.90
62998;DHT22;55949;52.590;7.330;2023-07-30T04:38:36;17.50;99.90
62998;DHT22;55949;52.590;7.330;2023-07-30T04:39:37;17.60;99.90
62998;DHT22;55949;52.590;7.330;2023-07-30T04:40:38;17.70;99.90
62998;DHT22;55949;52.590;7.330;2023-07-30T04:41:39;17.70;99.90
62998;DHT22;55949;52.590;7.330;2023-07-30T04:42:40;17.30;99.90
62998;DHT22;55949;52.590;7.330;2023-07-30T04:43:41;17.30;99.90
62998;DHT22;55949;52.590;7.330;2023-07-30T04:44:42;17.50;99.90
62998;DHT22;55949;52.590;7.330;2023-07-30T04:45:42;17.60;99.90
62998;DHT22;55949;52.590;7.330;2023-07-30T04:46:43;17.60;99.90
62998;DHT22;55949;52.590;7.330;2023-07-30T04:47:44;17.60;99.90
62998;DHT22;55949;52.590;7.330;2023-07-30T04:48:44;17.70;99.90
62998;DHT22;55949;52.590;7.330;2023-07-30T04:49:45;17.80;99.90
62998;DHT22;55949;52.590;7.330;2023-07-30T04:50:45;17.80;99.90
62998;DHT22;55949;52.590;7.330;2023-07-30T04:51:46;17.70;99.90
62998;DHT22;55949;52.590;7.330;2023-07-30T04:52:47;17.60;99.90
62998;DHT22;55949;52.590;7.330;2023-07-30T04:53:47;17.60;99.90
62998;DHT22;55949;52.590;7.330;2023-07-30T04:54:48;17.30;99.90
62998;DHT22;55949;52.590;7.330;2023-07-30T04:55:53;17.20;99.90
62998;DHT22;55949;52.590;7.330;2023-07-30T04:56:54;17.00;99.90
62998;DHT22;55949;52.590;7.330;2023-07-30T04:57:55;17.10;99.90
62998;DHT22;55949;52.590;7.330;2023-07-30T04:58:56;17.30;99.90
62998;DHT22;55949;52.590;7.330;2023-07-30T04:59:56;17.10;99.90
62998;DHT22;55949;52.590;7.330;2023-07-30T05:00:57;16.90;99.90
62998;DHT22;55949;52.590;7.330;2023-07-30T05:01:57;16.90;99.90
62998;DHT22;55949;52.590;7.330;2023-07-30T05:02:58;17.00;99.90
62998;DHT22;55949;52.590;7.330;2023-07-30T05:03:59;17.10;99.90
62998;DHT22;55949;52.590;7.330;2023-07-30T05:04:59;17.10;99.90
62998;DHT22;55949;52.590;7.330;2023-07-30T05:06:00;16.90;99.90
62998;DHT22;55949;52.590;7.330;2023-07-30T05:07:00;16.80;99.90
62998;DHT22;55949;52.590;7.330;2023-07-30T05:08:01;16.90;99.90
62998;DHT22;55949;52.590;7.330;2023-07-30T05:09:02;17.10;99.90
62998;DHT22;55949;52.590;7.330;2023-07-30T05:10:03;16.80;99.90
62998;DHT22;55949;52.590;7.330;2023-07-30T05:11:07;16.80;99.90
62998;DHT22;55949;52.590;7.330;2023-07-30T05:12:07;16.90;99.90
62998;DHT22;55949;52.590;7.330;2023-07-30T05:13:08;17.00;99.90
62998;DHT22;55949;52.590;7.330;2023-07-30T05:14:09;17.10;99.90
62998;DHT22;55949;52.590;7.330;2023-07-30T05:15:10;17.20;99.90
62998;DHT22;55949;52.590;7.330;2023-07-30T05:16:10;17.30;99.90
62998;DHT22;55949;52.590;7.330;2023-07-30T05:17:11;17.20;99.90
62998;DHT22;55949;52.590;7.330;2023-07-30T05:18:12;17.30;99.90
62998;DHT22;55949;52.590;7.330;2023-07-30T05:19:14;17.50;99.90
62998;DHT22;55949;52.590;7.330;2023-07-30T05:20:14;17.50;99.90
62998;DHT22;55949;52.590;7.330;2023-07-30T05:21:15;17.50;99.90
62998;DHT22;55949;52.590;7.330;2023-07-30T05:22:15;17.50;99.90
62998;DHT22;55949;52.590;7.330;2023-07-30T05:23:16;17.40;99.90
62998;DHT22;55949;52.590;7.330;2023-07-30T05:24:17;17.20;99.90
62998;DHT22;55949;52.590;7.330;2023-07-30T05:25:17;17.30;99.90
62998;DHT22;55949;52.590;7.330;2023-07-30T05:26:18;17.40;99.90
62998;DHT22;55949;52.590;7.330;2023-07-30T05:27:19;17.40;99.90
62998;DHT22;55949;52.590;7.330;2023-07-30T05:28:19;17.40;99.90
62998;DHT22;55949;52.590;7.330;2023-07-30T05:29:20;17.40;99.90
62998;DHT22;55949;52.590;7.330;2023-07-30T05:30:21;17.60;99.90
62998;DHT22;55949;52.590;7.330;2023-07-30T05:31:21;17.70;99.90
62998;DHT22;55949;52.590;7.330;2023-07-30T05:32:22;17.60;99.90
62998;DHT22;55949;52.590;7.330;2023-07-30T05:33:23;17.80;99.90
62998;DHT22;55949;52.590;7.330;2023-07-30T05:34:24;17.80;99.90
62998;DHT22;55949;52.590;7.330;2023-07-30T05:35:24;17.90;99.90
62998;DHT22;55949;52.590;7.330;2023-07-30T05:36:25;17.80;99.90
62998;DHT22;55949;52.590;7.330;2023-07-30T05:37:26;17.90;99.90
62998;DHT22;55949;52.590;7.330;2023-07-30T05:38:26;17.90;99.90
62998;DHT22;55949;52.590;7.330;2023-07-30T05:39:27;17.90;99.90
62998;DHT22;55949;52.590;7.330;2023-07-30T05:40:28;17.90;99.90
62998;DHT22;55949;52.590;7.330;2023-07-30T05:41:28;18.00;99.90
62998;DHT22;55949;52.590;7.330;2023-07-30T05:42:29;17.90;99.90
62998;DHT22;55949;52.590;7.330;2023-07-30T05:43:30;18.00;99.90
62998;DHT22;55949;52.590;7.330;2023-07-30T05:44:30;17.90;99.90
62998;DHT22;55949;52.590;7.330;2023-07-30T05:45:31;18.00;99.90
62998;DHT22;55949;52.590;7.330;2023-07-30T05:46:32;18.00;99.90
62998;DHT22;55949;52.590;7.330;2023-07-30T05:47:32;18.10;99.90
62998;DHT22;55949;52.590;7.330;2023-07-30T05:48:33;17.90;99.90
62998;DHT22;55949;52.590;7.330;2023-07-30T05:49:34;18.00;99.90
62998;DHT22;55949;52.590;7.330;2023-07-30T05:50:34;18.20;99.90
62998;DHT22;55949;52.590;7.330;2023-07-30T05:51:35;18.40;99.90
62998;DHT22;55949;52.590;7.330;2023-07-30T05:52:35;18.10;99.90
62998;DHT22;55949;52.590;7.330;2023-07-30T05:53:37;17.90;99.90
62998;DHT22;55949;52.590;7.330;2023-07-30T05:54:37;17.90;99.90
62998;DHT22;55949;52.590;7.330;2023-07-30T05:55:38;17.90;99.90
62998;DHT22;55949;52.590;7.330;2023-07-30T05:56:39;18.00;99.90
62998;DHT22;55949;52.590;7.330;2023-07-30T05:57:39;18.00;99.90
62998;DHT22;55949;52.590;7.330;2023-07-30T05:58:40;18.20;99.90
62998;DHT22;55949;52.590;7.330;2023-07-30T05:59:41;18.10;99.90
62998;DHT22;55949;52.590;7.330;2023-07-30T06:00:41;17.90;99.90
62998;DHT22;55949;52.590;7.330;2023-07-30T06:01:42;18.00;99.90
62998;DHT22;55949;52.590;7.330;2023-07-30T06:02:43;18.20;99.90
62998;DHT22;55949;52.590;7.330;2023-07-30T06:03:43;18.00;99.90
62998;DHT22;55949;52.590;7.330;2023-07-30T06:04:44;17.70;99.90
62998;DHT22;55949;52.590;7.330;2023-07-30T06:05:45;17.70;99.90
62998;DHT22;55949;52.590;7.330;2023-07-30T06:06:45;17.60;99.90
62998;DHT22;55949;52.590;7.330;2023-07-30T06:07:46;17.30;99.90
62998;DHT22;55949;52.590;7.330;2023-07-30T06:08:47;17.40;99.90
62998;DHT22;55949;52.590;7.330;2023-07-30T06:09:48;17.40;99.90
62998;DHT22;55949;52.590;7.330;2023-07-30T06:10:49;17.50;99.90
62998;DHT22;55949;52.590;7.330;2023-07-30T06:11:50;17.10;99.90
62998;DHT22;55949;52.590;7.330;2023-07-30T06:12:51;17.20;99.90
62998;DHT22;55949;52.590;7.330;2023-07-30T06:13:51;17.30;99.90
62998;DHT22;55949;52.590;7.330;2023-07-30T06:14:52;17.30;99.90
62998;DHT22;55949;52.590;7.330;2023-07-30T06:15:52;17.40;99.90
62998;DHT22;55949;52.590;7.330;2023-07-30T06:16:53;17.50;99.90
62998;DHT22;55949;52.590;7.330;2023-07-30T06:17:54;17.50;99.90
62998;DHT22;55949;52.590;7.330;2023-07-30T06:18:55;17.60;99.90
62998;DHT22;55949;52.590;7.330;2023-07-30T06:19:55;17.80;99.90
62998;DHT22;55949;52.590;7.330;2023-07-30T06:20:56;17.90;99.90
62998;DHT22;55949;52.590;7.330;2023-07-30T06:21:57;17.80;99.90
62998;DHT22;55949;52.590;7.330;2023-07-30T06:22:57;17.70;99.90
62998;DHT22;55949;52.590;7.330;2023-07-30T06:23:58;17.70;99.90
62998;DHT22;55949;52.590;7.330;2023-07-30T06:24:59;17.90;99.90
62998;DHT22;55949;52.590;7.330;2023-07-30T06:25:59;18.10;99.90